Time;durP1;ratioP1;P1;durP2;ratioP2;P2;SDS_P1;SDS_P2;PMS_P1;PMS_P2;Temp;Humidity;BMP_temperature;BMP_pressure;BME280_temperature;BME280_humidity;BME280_pressure;Samples;Min_cycle;Max_cycle;Signal;HPM_P1;HPM_P2
2022/03/16 00:01:00;;;;;;;17.38;13.52;;;18.60;47.10;;;;;;4832845;29;20190;-83
2022/03/16 00:03:29;;;;;;;18.25;13.82;;;18.60;47.10;;;;;;4863170;29;20213;-84
2022/03/16 00:05:57;;;;;;;17.73;13.75;;;18.50;47.30;;;;;;4847520;29;20548;-83
2022/03/16 00:08:28;;;;;;;17.75;13.23;;;18.50;47.30;;;;;;4847474;29;20252;-83
2022/03/16 00:10:58;;;;;;;19.88;14.00;;;18.50;47.20;;;;;;4848391;29;20195;-81
2022/03/16 00:13:27;;;;;;;18.27;14.13;;;18.50;47.30;;;;;;4833114;29;20270;-81
2022/03/16 00:15:56;;;;;;;16.45;13.07;;;18.50;47.50;;;;;;4847554;29;20223;-81
2022/03/16 00:18:22;;;;;;;20.02;13.43;;;18.50;47.40;;;;;;4847436;29;20192;-83
2022/03/16 00:20:56;;;;;;;20.63;13.90;;;18.50;47.60;;;;;;4863884;29;20251;-82
2022/03/16 00:23:26;;;;;;;16.60;13.88;;;18.40;47.50;;;;;;4847578;29;20240;-82
2022/03/16 00:25:52;;;;;;;17.42;13.88;;;18.50;47.40;;;;;;4847519;29;20191;-83
2022/03/16 00:28:18;;;;;;;19.45;13.55;;;18.40;47.70;;;;;;4863432;29;20172;-82
2022/03/16 00:30:45;;;;;;;18.33;13.02;;;18.40;47.60;;;;;;4863198;29;20536;-85
2022/03/16 00:33:15;;;;;;;18.10;13.38;;;18.40;47.70;;;;;;4847169;29;20280;-83
2022/03/16 00:35:43;;;;;;;16.45;13.40;;;18.40;47.70;;;;;;4832417;29;20371;-84
2022/03/16 00:38:14;;;;;;;17.08;12.68;;;18.40;47.30;;;;;;4847098;29;20187;-83
2022/03/16 00:40:45;;;;;;;15.65;13.40;;;18.40;47.50;;;;;;4832852;29;20655;-82
2022/03/16 00:43:13;;;;;;;18.90;14.18;;;18.40;47.50;;;;;;4832198;29;20187;-82
2022/03/16 00:45:39;;;;;;;16.75;13.35;;;18.40;47.80;;;;;;4847097;29;20200;-88
2022/03/16 00:48:07;;;;;;;17.50;13.32;;;18.40;47.70;;;;;;4848166;29;20584;-84
2022/03/16 00:50:37;;;;;;;17.55;13.73;;;18.40;47.30;;;;;;4862497;29;20188;-85
2022/03/16 00:53:07;;;;;;;18.23;12.38;;;18.40;47.70;;;;;;4847078;29;20603;-81
2022/03/16 00:55:37;;;;;;;17.45;13.45;;;18.40;47.60;;;;;;4847114;29;20215;-85
2022/03/16 00:58:03;;;;;;;17.95;13.25;;;18.40;47.60;;;;;;4831833;29;20628;-80
2022/03/16 01:00:33;;;;;;;18.75;13.40;;;18.40;47.40;;;;;;4847814;29;20251;-86
2022/03/16 01:03:01;;;;;;;17.10;13.07;;;18.40;47.80;;;;;;4862244;29;20560;-83
2022/03/16 01:05:28;;;;;;;16.85;13.27;;;18.40;47.60;;;;;;4831651;29;20180;-81
2022/03/16 01:07:54;;;;;;;19.48;13.98;;;18.30;47.60;;;;;;4862222;29;20191;-81
2022/03/16 01:10:20;;;;;;;18.60;14.35;;;18.40;47.80;;;;;;4865117;29;20646;-83
2022/03/16 01:12:45;;;;;;;15.70;12.90;;;18.40;48.00;;;;;;4851436;29;20168;-83
2022/03/16 01:15:12;;;;;;;16.25;13.25;;;18.30;47.60;;;;;;4851383;29;20709;-83
2022/03/16 01:17:39;;;;;;;17.23;12.82;;;18.30;47.70;;;;;;4835154;29;20262;-83
2022/03/16 01:20:06;;;;;;;17.38;13.45;;;18.30;47.60;;;;;;4866445;29;20253;-82
2022/03/16 01:22:33;;;;;;;17.10;12.68;;;18.30;47.70;;;;;;4851363;29;20175;-89
2022/03/16 01:25:00;;;;;;;16.27;13.00;;;18.30;47.80;;;;;;4850393;29;20191;-85
2022/03/16 01:27:29;;;;;;;18.52;13.90;;;18.30;47.80;;;;;;4851208;29;20692;-80
2022/03/16 01:29:59;;;;;;;16.52;12.93;;;18.30;47.80;;;;;;4850664;29;20626;-85
2022/03/16 01:32:28;;;;;;;16.65;13.50;;;18.30;47.70;;;;;;4850296;29;20227;-86
2022/03/16 01:34:57;;;;;;;19.17;13.50;;;18.30;47.90;;;;;;4850154;29;20278;-85
2022/03/16 01:37:26;;;;;;;17.33;13.75;;;18.40;48.00;;;;;;4865462;29;20224;-86
2022/03/16 01:39:54;;;;;;;19.30;13.70;;;18.30;48.10;;;;;;4865573;29;20247;-87
2022/03/16 01:42:20;;;;;;;17.15;13.52;;;18.30;48.10;;;;;;4851091;29;20219;-87
2022/03/16 01:44:50;;;;;;;17.23;13.27;;;18.30;48.10;;;;;;4866123;29;20609;-84
2022/03/16 01:47:19;;;;;;;17.67;13.95;;;18.30;48.00;;;;;;4866460;29;20226;-82
2022/03/16 01:49:49;;;;;;;16.98;13.18;;;18.30;47.80;;;;;;4835248;29;20192;-84
2022/03/16 01:52:21;;;;;;;16.33;13.45;;;18.30;48.00;;;;;;4849959;29;20188;-83
2022/03/16 01:54:50;;;;;;;16.30;13.45;;;18.30;47.80;;;;;;4835025;29;20647;-83
2022/03/16 01:57:19;;;;;;;16.52;13.45;;;18.30;48.00;;;;;;4850112;29;20303;-84
2022/03/16 01:59:47;;;;;;;17.38;13.30;;;18.30;48.00;;;;;;4850096;29;20674;-87
2022/03/16 02:02:16;;;;;;;15.30;13.25;;;18.20;48.10;;;;;;4849799;29;20265;-85
2022/03/16 02:04:46;;;;;;;16.80;13.43;;;18.30;47.80;;;;;;4849974;29;20188;-84
2022/03/16 02:07:15;;;;;;;17.48;13.10;;;18.20;48.10;;;;;;4850121;29;20199;-83
2022/03/16 02:09:41;;;;;;;18.45;13.68;;;18.20;48.10;;;;;;4849680;29;20191;-83
2022/03/16 02:12:10;;;;;;;16.30;13.15;;;18.20;48.00;;;;;;4866059;29;20164;-81
2022/03/16 02:14:37;;;;;;;20.25;14.75;;;18.20;48.20;;;;;;4865646;29;20643;-85
2022/03/16 02:17:04;;;;;;;18.23;13.88;;;18.20;48.10;;;;;;4834819;29;20204;-83
2022/03/16 02:19:29;;;;;;;16.88;13.00;;;18.20;48.20;;;;;;4850126;29;20589;-84
2022/03/16 02:21:57;;;;;;;16.52;13.13;;;18.20;48.20;;;;;;4864429;29;20179;-86
2022/03/16 02:24:29;;;;;;;16.73;13.07;;;18.20;48.30;;;;;;4834113;29;20184;-84
2022/03/16 02:26:56;;;;;;;17.20;13.07;;;18.20;48.00;;;;;;4835024;29;20671;-85
2022/03/16 02:29:22;;;;;;;14.57;12.27;;;18.20;48.10;;;;;;4865526;29;20212;-88
2022/03/16 02:31:47;;;;;;;16.00;12.73;;;18.20;48.00;;;;;;4850019;29;20168;-86
2022/03/16 02:34:14;;;;;;;18.15;13.10;;;18.20;47.70;;;;;;4865179;29;20168;-83
2022/03/16 02:36:40;;;;;;;18.05;13.40;;;18.20;48.10;;;;;;4849802;29;20193;-82
2022/03/16 02:39:06;;;;;;;16.90;14.15;;;18.20;48.20;;;;;;4849946;29;20169;-85
2022/03/16 02:41:34;;;;;;;16.13;13.23;;;18.10;48.00;;;;;;4849815;29;20307;-83
2022/03/16 02:43:59;;;;;;;17.10;13.25;;;18.20;48.20;;;;;;4864622;29;20195;-88
2022/03/16 02:46:27;;;;;;;16.85;13.23;;;18.20;48.00;;;;;;4882015;29;20172;-82
2022/03/16 02:48:54;;;;;;;17.58;13.85;;;18.20;48.20;;;;;;4849176;29;20267;-87
2022/03/16 02:51:19;;;;;;;16.35;13.05;;;18.30;47.80;;;;;;4849208;29;20198;-83
2022/03/16 02:53:46;;;;;;;14.93;12.10;;;18.20;48.20;;;;;;4852886;29;20184;-84
2022/03/16 02:56:11;;;;;;;15.75;13.10;;;18.20;48.30;;;;;;4867432;29;20180;-80
2022/03/16 02:58:38;;;;;;;17.50;13.50;;;18.20;47.90;;;;;;4867564;29;20176;-84
2022/03/16 03:01:03;;;;;;;16.58;13.20;;;18.20;48.30;;;;;;4884493;29;20165;-86
2022/03/16 03:03:29;;;;;;;17.35;13.25;;;18.20;48.10;;;;;;4886215;29;20197;-79
2022/03/16 03:05:55;;;;;;;16.45;13.20;;;18.20;48.30;;;;;;4870214;29;20177;-80
2022/03/16 03:08:21;;;;;;;17.95;13.38;;;18.20;48.20;;;;;;4869478;29;20191;-80
2022/03/16 03:10:48;;;;;;;15.68;13.48;;;18.10;48.20;;;;;;4869824;29;20617;-85
2022/03/16 03:13:15;;;;;;;16.85;13.20;;;18.20;47.90;;;;;;4867788;29;20239;-84
2022/03/16 03:15:42;;;;;;;17.95;13.65;;;18.20;48.00;;;;;;4851790;29;20198;-81
2022/03/16 03:18:08;;;;;;;15.75;12.40;;;18.20;47.90;;;;;;4859202;29;20191;-80
2022/03/16 03:20:33;;;;;;;18.80;13.35;;;18.10;47.90;;;;;;4858950;29;20227;-80
2022/03/16 03:22:59;;;;;;;17.85;13.07;;;18.20;48.10;;;;;;4870848;29;20168;-84
2022/03/16 03:25:27;;;;;;;16.38;12.68;;;18.20;48.00;;;;;;4864509;29;20160;-82
2022/03/16 03:27:53;;;;;;;17.80;13.48;;;18.20;48.30;;;;;;4849347;29;20191;-82
2022/03/16 03:30:19;;;;;;;18.05;13.80;;;18.10;47.90;;;;;;4849143;29;20628;-83
2022/03/16 03:32:45;;;;;;;16.90;13.15;;;18.10;48.20;;;;;;4864503;29;20175;-82
2022/03/16 03:35:11;;;;;;;16.20;13.48;;;18.10;48.20;;;;;;4864085;29;20164;-82
2022/03/16 03:37:41;;;;;;;16.23;12.88;;;18.20;48.30;;;;;;4864442;29;20248;-86
2022/03/16 03:40:09;;;;;;;17.75;12.90;;;18.20;48.30;;;;;;4848160;29;20219;-81
2022/03/16 03:42:35;;;;;;;15.43;13.00;;;18.10;48.30;;;;;;4848725;29;20616;-83
2022/03/16 03:45:01;;;;;;;16.52;13.38;;;18.10;48.50;;;;;;4864331;29;20309;-80
2022/03/16 03:47:27;;;;;;;15.05;12.85;;;18.10;48.30;;;;;;4880641;29;20624;-88
2022/03/16 03:49:53;;;;;;;19.08;13.75;;;18.10;48.10;;;;;;4848823;29;20169;-82
2022/03/16 03:52:20;;;;;;;15.02;12.75;;;18.10;48.40;;;;;;4880750;29;20175;-85
2022/03/16 03:54:45;;;;;;;15.30;12.70;;;18.10;48.40;;;;;;4848461;29;20176;-86
2022/03/16 03:57:11;;;;;;;14.95;12.00;;;18.10;47.80;;;;;;4833393;29;20199;-86
2022/03/16 03:59:36;;;;;;;16.10;12.85;;;18.10;48.20;;;;;;4848539;29;20203;-82
2022/03/16 04:02:02;;;;;;;16.42;12.90;;;18.10;48.40;;;;;;4863672;29;20228;-86
2022/03/16 04:04:28;;;;;;;17.17;13.13;;;18.10;48.30;;;;;;4863857;29;20165;-82
2022/03/16 04:06:54;;;;;;;16.92;13.68;;;18.00;48.40;;;;;;4863605;29;20169;-88
2022/03/16 04:09:24;;;;;;;17.00;12.73;;;18.10;48.40;;;;;;4880473;29;20196;-86
2022/03/16 04:11:53;;;;;;;15.55;12.52;;;18.10;48.30;;;;;;4832604;29;20265;-81
2022/03/16 04:14:22;;;;;;;17.88;13.13;;;18.10;48.50;;;;;;4863039;29;20215;-83
2022/03/16 04:16:52;;;;;;;16.02;12.70;;;18.10;48.40;;;;;;4847536;29;20231;-83
2022/03/16 04:19:21;;;;;;;17.30;13.65;;;18.10;48.30;;;;;;4847206;29;20788;-79
2022/03/16 04:21:50;;;;;;;15.15;12.90;;;18.00;48.10;;;;;;4862845;29;20194;-82
2022/03/16 04:24:19;;;;;;;15.40;12.65;;;18.10;48.50;;;;;;4847362;29;20195;-83
2022/03/16 04:26:48;;;;;;;16.08;13.13;;;18.10;48.40;;;;;;4847443;29;20195;-88
2022/03/16 04:29:17;;;;;;;16.88;12.90;;;18.10;48.80;;;;;;4832331;29;20183;-86
2022/03/16 04:31:47;;;;;;;15.63;13.00;;;18.00;48.50;;;;;;4847417;29;20215;-87
2022/03/16 04:34:13;;;;;;;16.85;13.23;;;18.00;48.30;;;;;;4862670;29;20550;-83
2022/03/16 04:36:39;;;;;;;15.90;12.75;;;18.00;48.30;;;;;;4863152;29;20299;-85
2022/03/16 04:39:06;;;;;;;15.30;12.57;;;18.00;48.10;;;;;;4847844;29;20266;-82
2022/03/16 04:41:32;;;;;;;17.65;13.20;;;18.10;49.10;;;;;;4863715;29;20160;-87
2022/03/16 04:44:03;;;;;;;17.33;13.60;;;18.00;48.60;;;;;;4862652;29;20164;-82
2022/03/16 04:46:31;;;;;;;18.33;13.00;;;18.10;47.80;;;;;;4862296;29;20190;-85
2022/03/16 04:49:00;;;;;;;15.45;12.55;;;18.10;48.30;;;;;;4847386;29;20248;-81
2022/03/16 04:51:26;;;;;;;15.40;12.52;;;18.10;48.10;;;;;;4880390;29;20255;-84
2022/03/16 04:53:51;;;;;;;16.73;12.80;;;18.10;48.00;;;;;;4863283;29;20260;-86
2022/03/16 04:56:19;;;;;;;16.88;13.00;;;18.10;48.30;;;;;;4847720;29;20231;-85
2022/03/16 04:58:47;;;;;;;16.27;12.68;;;18.10;48.50;;;;;;4862780;29;20192;-85
2022/03/16 05:01:17;;;;;;;16.60;12.68;;;18.10;48.10;;;;;;4862459;29;20603;-86
2022/03/16 05:03:46;;;;;;;16.90;13.35;;;18.00;48.40;;;;;;4862597;29;20184;-82
2022/03/16 05:06:12;;;;;;;16.30;12.60;;;18.00;48.50;;;;;;4816745;29;20203;-83
2022/03/16 05:08:38;;;;;;;15.30;12.68;;;18.10;48.50;;;;;;4847789;29;20175;-87
2022/03/16 05:11:04;;;;;;;15.00;12.20;;;18.00;48.20;;;;;;4847885;29;20175;-84
2022/03/16 05:13:31;;;;;;;16.25;13.13;;;18.00;48.50;;;;;;4848041;29;20301;-81
2022/03/16 05:15:57;;;;;;;15.85;12.88;;;17.90;48.20;;;;;;4847801;29;20746;-87
2022/03/16 05:18:23;;;;;;;16.27;13.20;;;18.00;48.40;;;;;;4847424;29;20203;-82
2022/03/16 05:20:49;;;;;;;18.08;13.60;;;18.00;48.30;;;;;;4879762;29;20164;-82
2022/03/16 05:23:16;;;;;;;14.20;12.13;;;18.00;48.20;;;;;;4863033;29;20172;-83
2022/03/16 05:25:42;;;;;;;17.23;13.05;;;18.00;48.10;;;;;;4847750;29;20322;-82
2022/03/16 05:28:07;;;;;;;17.92;13.18;;;18.00;48.20;;;;;;4862898;29;20267;-85
2022/03/16 05:30:33;;;;;;;18.48;13.48;;;18.00;48.20;;;;;;4862808;29;20259;-84
2022/03/16 05:33:00;;;;;;;15.75;12.80;;;18.00;48.30;;;;;;4863121;29;20175;-84
2022/03/16 05:35:29;;;;;;;16.00;12.60;;;18.00;47.70;;;;;;4847729;29;20175;-81
2022/03/16 05:37:57;;;;;;;16.15;12.38;;;18.10;48.00;;;;;;4831673;29;20187;-83
2022/03/16 05:40:24;;;;;;;16.15;12.88;;;18.10;48.00;;;;;;4846591;29;20188;-84
2022/03/16 05:42:50;;;;;;;16.65;13.18;;;18.10;47.90;;;;;;4862184;29;20610;-84
2022/03/16 05:45:21;;;;;;;16.52;12.85;;;18.10;48.00;;;;;;4847505;29;20627;-85
2022/03/16 05:47:48;;;;;;;14.98;12.30;;;18.10;48.10;;;;;;4861967;29;20183;-85
2022/03/16 05:50:15;;;;;;;17.17;12.95;;;18.10;47.10;;;;;;4861984;29;20206;-83
2022/03/16 05:52:43;;;;;;;17.15;12.77;;;18.20;47.40;;;;;;4862026;29;20273;-83
2022/03/16 05:55:09;;;;;;;14.98;12.25;;;18.20;46.90;;;;;;4848116;29;20220;-88
2022/03/16 05:57:39;;;;;;;14.82;11.77;;;18.10;47.20;;;;;;4850771;29;20188;-80
2022/03/16 06:00:07;;;;;;;15.65;12.85;;;18.30;46.90;;;;;;4851682;29;20160;-87
2022/03/16 06:02:33;;;;;;;14.40;12.13;;;18.30;46.60;;;;;;4882686;29;20159;-82
2022/03/16 06:05:00;;;;;;;15.30;12.40;;;18.30;47.10;;;;;;4866505;29;20724;-85
2022/03/16 06:07:28;;;;;;;15.15;11.85;;;18.30;47.10;;;;;;4875845;29;20157;-84
2022/03/16 06:09:54;;;;;;;16.08;12.70;;;18.30;46.60;;;;;;4875632;29;20202;-80
2022/03/16 06:12:19;;;;;;;18.48;13.00;;;18.30;46.70;;;;;;4876276;29;20253;-81
2022/03/16 06:14:50;;;;;;;16.50;12.90;;;18.40;46.30;;;;;;4875936;29;20164;-81
2022/03/16 06:17:19;;;;;;;15.88;12.70;;;18.40;46.70;;;;;;4874989;29;20220;-80
2022/03/16 06:19:45;;;;;;;15.90;12.43;;;18.40;46.60;;;;;;4874654;29;20231;-81
2022/03/16 06:22:13;;;;;;;15.25;12.55;;;18.40;46.60;;;;;;4858954;29;20180;-81
2022/03/16 06:24:38;;;;;;;14.77;11.77;;;18.40;46.60;;;;;;4856359;29;20180;-80
2022/03/16 06:27:05;;;;;;;14.85;12.32;;;18.40;46.00;;;;;;4858889;29;20208;-80
2022/03/16 06:29:31;;;;;;;14.95;12.13;;;18.40;45.80;;;;;;4843823;29;20344;-79
2022/03/16 06:31:57;;;;;;;15.57;11.88;;;18.50;46.00;;;;;;4853225;29;20196;-79
2022/03/16 06:34:23;;;;;;;16.75;12.20;;;18.40;46.20;;;;;;4846544;29;20204;-83
2022/03/16 06:36:50;;;;;;;16.40;12.68;;;18.40;45.90;;;;;;4847072;29;20235;-85
2022/03/16 06:39:16;;;;;;;14.48;12.07;;;18.50;45.80;;;;;;4862156;29;20248;-87
2022/03/16 06:41:43;;;;;;;14.68;11.95;;;18.60;45.80;;;;;;4847042;29;20570;-85
2022/03/16 06:44:09;;;;;;;15.60;12.15;;;18.50;45.60;;;;;;4877117;29;20181;-82
2022/03/16 06:46:35;;;;;;;13.65;11.60;;;18.60;45.80;;;;;;4863680;29;20530;-82
2022/03/16 06:49:00;;;;;;;14.13;11.25;;;18.50;45.80;;;;;;4881254;29;20636;-85
2022/03/16 06:51:26;;;;;;;14.15;12.05;;;18.60;45.40;;;;;;4835633;29;20239;-83
2022/03/16 06:53:57;;;;;;;13.25;11.63;;;18.60;45.60;;;;;;4865264;29;20175;-86
2022/03/16 06:56:23;;;;;;;14.50;11.60;;;18.60;45.10;;;;;;4833624;29;20588;-82
2022/03/16 06:58:49;;;;;;;14.07;11.68;;;18.60;45.60;;;;;;4880483;29;20182;-85
2022/03/16 07:01:15;;;;;;;16.15;12.20;;;18.60;45.80;;;;;;4864914;29;20528;-82
2022/03/16 07:03:41;;;;;;;14.73;11.98;;;18.60;45.50;;;;;;4881330;29;20212;-82
2022/03/16 07:06:10;;;;;;;14.82;11.73;;;18.60;45.50;;;;;;4864643;29;20205;-89
2022/03/16 07:08:38;;;;;;;14.68;11.50;;;18.60;45.40;;;;;;4881308;29;20179;-83
2022/03/16 07:11:04;;;;;;;14.18;11.32;;;18.60;45.20;;;;;;4849743;29;20263;-88
2022/03/16 07:13:30;;;;;;;13.27;11.07;;;18.60;45.00;;;;;;4834770;29;20272;-83
2022/03/16 07:15:58;;;;;;;15.18;11.90;;;18.60;45.30;;;;;;4836517;29;20569;-84
2022/03/16 07:18:24;;;;;;;13.73;11.90;;;18.60;45.20;;;;;;4829076;29;20192;-82
2022/03/16 07:20:51;;;;;;;13.23;11.30;;;18.70;45.10;;;;;;4846067;29;20629;-83
2022/03/16 07:23:18;;;;;;;13.93;11.45;;;18.60;44.80;;;;;;4831430;29;20249;-84
2022/03/16 07:25:46;;;;;;;13.70;10.40;;;18.70;45.40;;;;;;4850445;29;20176;-79
2022/03/16 07:28:12;;;;;;;13.48;11.70;;;18.60;44.10;;;;;;4867649;29;20164;-80
2022/03/16 07:30:38;;;;;;;14.93;11.52;;;18.70;44.90;;;;;;4851539;29;20205;-84
2022/03/16 07:33:08;;;;;;;14.27;11.20;;;18.70;44.50;;;;;;4851090;29;20206;-81
2022/03/16 07:35:35;;;;;;;13.60;10.43;;;18.80;44.30;;;;;;4850096;29;20263;-85
2022/03/16 07:38:02;;;;;;;15.02;11.07;;;18.80;44.30;;;;;;4865855;29;20161;-81
2022/03/16 07:40:30;;;;;;;13.25;11.07;;;18.80;44.50;;;;;;4851088;29;20164;-82
2022/03/16 07:42:56;;;;;;;13.77;11.43;;;18.80;44.40;;;;;;4863017;29;20202;-80
2022/03/16 07:45:27;;;;;;;14.52;11.15;;;18.80;44.30;;;;;;4846418;29;20562;-80
2022/03/16 07:47:56;;;;;;;14.32;11.40;;;18.90;44.20;;;;;;4836756;29;20220;-82
2022/03/16 07:50:25;;;;;;;13.00;11.18;;;18.80;44.40;;;;;;4851502;29;20280;-80
2022/03/16 07:59:51;;;;;;;13.23;11.10;;;18.90;44.20;;;;;;4782081;30;20187;-82
2022/03/16 08:02:37;;;;;;;12.70;10.75;;;19.00;43.80;;;;;;4781335;30;20180;-81
2022/03/16 08:05:04;;;;;;;14.60;11.70;;;19.00;44.40;;;;;;4764682;30;20260;-82
2022/03/16 08:07:36;;;;;;;13.55;11.10;;;19.10;44.60;;;;;;4765654;30;20210;-85
2022/03/16 08:10:08;;;;;;;14.40;11.15;;;19.10;44.30;;;;;;4748554;30;20320;-81
2022/03/16 08:12:35;;;;;;;13.55;11.00;;;19.00;44.60;;;;;;4718741;30;20196;-82
2022/03/16 08:15:06;;;;;;;13.13;11.15;;;19.00;44.70;;;;;;4765476;30;20179;-79
2022/03/16 08:17:32;;;;;;;15.93;11.55;;;18.90;44.40;;;;;;4736774;30;20216;-82
2022/03/16 08:19:58;;;;;;;13.77;10.73;;;18.90;44.60;;;;;;4748068;30;20243;-83
2022/03/16 08:22:31;;;;;;;12.55;10.45;;;18.90;44.60;;;;;;4747442;30;20181;-82
2022/03/16 08:25:06;;;;;;;13.10;10.68;;;19.00;44.30;;;;;;4722392;30;20200;-84
2022/03/16 08:27:37;;;;;;;15.32;10.55;;;19.00;43.80;;;;;;4722718;30;20201;-84
2022/03/16 08:30:11;;;;;;;14.35;11.30;;;19.10;44.10;;;;;;4682227;30;20242;-81
2022/03/16 08:32:37;;;;;;;13.30;11.00;;;19.00;44.00;;;;;;4694523;30;20189;-83
2022/03/16 08:35:11;;;;;;;13.80;10.93;;;19.00;43.50;;;;;;4740311;30;20618;-83
2022/03/16 08:37:37;;;;;;;14.02;11.00;;;19.20;43.50;;;;;;4757988;30;20395;-82
2022/03/16 08:40:03;;;;;;;13.45;10.93;;;19.10;43.60;;;;;;4767935;30;20192;-83
2022/03/16 08:42:29;;;;;;;13.00;10.50;;;19.20;43.80;;;;;;4772548;30;20196;-85
2022/03/16 08:44:55;;;;;;;13.35;10.80;;;19.10;43.50;;;;;;4757893;30;20200;-84
2022/03/16 08:47:22;;;;;;;14.68;11.07;;;19.20;44.10;;;;;;4756790;30;20199;-84
2022/03/16 08:49:55;;;;;;;14.02;10.55;;;19.10;44.90;;;;;;4758867;30;20691;-85
2022/03/16 08:52:24;;;;;;;12.88;10.82;;;19.10;44.20;;;;;;4771809;30;20693;-82
2022/03/16 08:54:53;;;;;;;13.13;10.70;;;19.10;43.90;;;;;;4758695;30;20235;-85
2022/03/16 08:57:22;;;;;;;12.68;10.55;;;19.10;43.90;;;;;;4770610;30;20296;-82
2022/03/16 08:59:55;;;;;;;13.25;10.55;;;19.10;43.90;;;;;;4748096;30;20188;-82
2022/03/16 09:02:24;;;;;;;14.00;10.35;;;19.20;43.70;;;;;;4761397;29;20270;-85
2022/03/16 09:04:53;;;;;;;15.60;10.10;;;19.10;43.90;;;;;;4818924;29;20197;-82
2022/03/16 09:07:24;;;;;;;16.50;9.90;;;19.10;44.50;;;;;;4844188;29;20782;-84
2022/03/16 09:09:59;;;;;;;22.25;10.85;;;19.10;44.40;;;;;;4854306;29;20192;-80
2022/03/16 09:12:24;;;;;;;19.55;10.45;;;19.10;45.00;;;;;;4838195;29;20544;-80
2022/03/16 09:14:50;;;;;;;16.10;10.10;;;19.10;44.20;;;;;;4867246;29;20202;-82
2022/03/16 09:17:20;;;;;;;20.42;10.20;;;19.20;43.90;;;;;;4836205;29;20189;-86
2022/03/16 09:19:46;;;;;;;16.70;10.48;;;19.20;44.60;;;;;;4854595;29;20232;-81
2022/03/16 09:22:20;;;;;;;16.63;11.20;;;19.20;44.60;;;;;;4851599;29;20170;-84
2022/03/16 09:24:50;;;;;;;18.42;10.75;;;19.20;44.60;;;;;;4838503;29;20188;-79
2022/03/16 09:27:21;;;;;;;14.68;10.38;;;19.20;44.40;;;;;;4818440;29;20333;-86
2022/03/16 09:29:47;;;;;;;16.30;10.73;;;19.20;44.30;;;;;;4833870;29;20207;-82
2022/03/16 09:32:14;;;;;;;15.27;10.38;;;19.30;44.30;;;;;;4827163;29;20190;-80
2022/03/16 09:34:44;;;;;;;16.13;9.90;;;19.30;44.30;;;;;;4821201;29;20239;-81
2022/03/16 09:37:10;;;;;;;17.40;9.82;;;19.30;44.30;;;;;;4807194;29;20339;-83
2022/03/16 09:39:39;;;;;;;19.35;10.45;;;19.40;44.10;;;;;;4804591;29;20193;-85
2022/03/16 09:42:09;;;;;;;15.88;10.93;;;19.30;44.50;;;;;;4824556;29;20174;-82
2022/03/16 09:44:36;;;;;;;18.85;10.30;;;19.30;45.00;;;;;;4799289;29;20198;-82
2022/03/16 09:47:02;;;;;;;13.70;10.40;;;19.30;44.00;;;;;;4812845;29;20229;-82
2022/03/16 09:49:33;;;;;;;19.92;10.23;;;19.40;44.20;;;;;;4822683;29;20187;-82
2022/03/16 09:52:09;;;;;;;16.70;10.07;;;19.40;44.30;;;;;;4802239;29;20219;-81
2022/03/16 09:54:53;;;;;;;16.88;10.45;;;19.50;44.30;;;;;;4802593;29;20159;-81
2022/03/16 09:57:22;;;;;;;15.27;9.70;;;19.50;44.20;;;;;;4821965;29;20215;-85
2022/03/16 09:59:56;;;;;;;12.73;9.68;;;19.40;44.40;;;;;;4850548;29;20223;-81
2022/03/16 10:02:27;;;;;;;15.00;10.27;;;19.40;44.40;;;;;;4803991;29;20225;-83
2022/03/16 10:04:55;;;;;;;13.90;10.50;;;19.50;44.20;;;;;;4803026;29;20186;-82
2022/03/16 10:07:37;;;;;;;12.93;9.80;;;19.50;44.40;;;;;;4789979;29;20246;-82
2022/03/16 10:15:28;;;;;;;15.30;9.85;;;19.30;45.00;;;;;;4855276;29;20189;-86
2022/03/16 10:18:00;;;;;;;13.30;10.07;;;19.40;44.80;;;;;;4839719;29;20232;-83
2022/03/16 10:20:32;;;;;;;18.02;10.18;;;19.30;45.00;;;;;;4833851;29;20237;-83
2022/03/16 10:23:08;;;;;;;12.02;10.05;;;19.40;45.00;;;;;;4833692;29;20198;-82
2022/03/16 10:25:37;;;;;;;14.93;9.60;;;19.40;44.80;;;;;;4819721;29;20190;-83
2022/03/16 10:28:11;;;;;;;14.30;9.63;;;19.40;44.60;;;;;;4818962;29;20171;-81
2022/03/16 10:30:54;;;;;;;13.00;9.98;;;19.40;44.60;;;;;;4837691;29;20168;-81
2022/03/16 10:33:25;;;;;;;15.63;10.10;;;19.50;44.40;;;;;;4806820;29;20190;-80
2022/03/16 10:36:00;;;;;;;12.88;9.65;;;19.40;44.60;;;;;;4806114;29;20209;-80
2022/03/16 10:38:26;;;;;;;14.90;10.18;;;19.40;44.50;;;;;;4827899;29;20653;-81
2022/03/16 10:41:08;;;;;;;11.88;9.50;;;19.40;44.50;;;;;;4840185;29;20242;-82
2022/03/16 10:46:34;;;;;;;12.75;9.65;;;19.40;44.30;;;;;;4851231;29;20185;-82
2022/03/16 10:49:04;;;;;;;12.65;9.30;;;19.40;44.50;;;;;;4816973;29;20286;-82
2022/03/16 10:51:31;;;;;;;14.35;9.68;;;19.50;44.50;;;;;;4829532;29;20204;-81
2022/03/16 10:54:02;;;;;;;12.55;9.48;;;19.40;44.40;;;;;;4821347;29;20194;-84
2022/03/16 10:56:33;;;;;;;14.45;9.38;;;19.50;44.40;;;;;;4821317;29;20221;-80
2022/03/16 10:59:05;;;;;;;11.88;9.80;;;19.40;44.40;;;;;;4821362;29;20218;-79
2022/03/16 11:01:41;;;;;;;15.02;9.63;;;19.40;44.70;;;;;;4821741;29;20194;-79
2022/03/16 11:04:16;;;;;;;13.63;9.57;;;19.40;44.50;;;;;;4806500;29;20181;-79
2022/03/16 11:06:51;;;;;;;12.30;9.57;;;19.40;44.30;;;;;;4821717;29;20272;-80
2022/03/16 11:09:25;;;;;;;13.20;9.50;;;19.50;44.40;;;;;;4820348;29;20189;-79
2022/03/16 11:14:49;;;;;;;10.68;9.18;;;19.50;44.20;;;;;;4823155;29;20213;-79
2022/03/16 11:17:23;;;;;;;11.93;9.82;;;19.50;44.20;;;;;;4806589;29;20222;-78
2022/03/16 11:19:51;;;;;;;12.55;9.63;;;19.50;43.90;;;;;;4823321;29;20237;-80
2022/03/16 11:22:28;;;;;;;11.57;9.52;;;19.40;44.10;;;;;;4856471;29;20170;-80
2022/03/16 11:25:05;;;;;;;12.68;10.27;;;19.40;44.10;;;;;;4825660;29;20185;-79
2022/03/16 11:27:56;;;;;;;13.50;9.60;;;19.40;44.10;;;;;;4854682;29;20212;-80
2022/03/16 11:30:36;;;;;;;13.27;9.82;;;19.50;44.10;;;;;;4829341;29;20541;-79
2022/03/16 11:33:12;;;;;;;14.15;9.93;;;19.50;44.90;;;;;;4821897;29;20196;-83
2022/03/16 11:35:45;;;;;;;14.23;9.27;;;19.40;45.00;;;;;;4837669;29;20185;-82
2022/03/16 11:38:16;;;;;;;11.80;9.95;;;19.30;45.00;;;;;;4820283;29;20614;-81
2022/03/16 11:40:50;;;;;;;12.25;9.68;;;19.40;44.80;;;;;;4826997;29;20189;-81
2022/03/16 11:43:22;;;;;;;11.15;9.05;;;19.40;44.80;;;;;;4846635;29;20179;-82
2022/03/16 11:45:55;;;;;;;13.55;9.55;;;19.30;44.50;;;;;;4845766;29;20180;-81
2022/03/16 11:48:41;;;;;;;12.25;9.50;;;19.40;44.10;;;;;;4824599;29;20189;-86
2022/03/16 11:51:19;;;;;;;13.10;9.10;;;19.40;44.20;;;;;;4835015;29;20185;-82
2022/03/16 11:54:07;;;;;;;11.18;9.23;;;19.40;44.50;;;;;;4832440;29;20188;-84
2022/03/16 11:56:48;;;;;;;12.57;9.18;;;19.40;44.10;;;;;;4832479;29;20212;-85
2022/03/16 11:59:31;;;;;;;12.10;9.77;;;19.30;44.40;;;;;;4835181;29;20199;-82
2022/03/16 12:02:12;;;;;;;11.27;9.32;;;19.40;44.60;;;;;;4821414;29;20238;-82
2022/03/16 12:04:46;;;;;;;12.48;9.23;;;19.30;44.50;;;;;;4836618;29;20184;-86
2022/03/16 12:07:18;;;;;;;12.73;9.73;;;19.30;44.60;;;;;;4838706;29;20196;-86
2022/03/16 12:09:59;;;;;;;10.35;8.65;;;19.30;44.20;;;;;;4835341;29;20281;-80
2022/03/16 12:15:37;;;;;;;12.90;9.40;;;19.40;44.40;;;;;;4841331;29;20519;-83
2022/03/16 12:18:24;;;;;;;13.60;9.32;;;19.40;45.00;;;;;;4833644;29;20300;-80
2022/03/16 12:20:58;;;;;;;14.85;9.60;;;19.30;44.30;;;;;;4849879;29;20227;-84
2022/03/16 12:23:41;;;;;;;13.25;9.35;;;19.40;44.00;;;;;;4817439;29;20191;-85
2022/03/16 12:26:09;;;;;;;13.25;9.60;;;19.30;44.20;;;;;;4846125;29;20184;-84
2022/03/16 12:31:26;;;;;;;13.07;9.07;;;19.40;44.20;;;;;;4847359;29;20185;-80
2022/03/16 12:34:00;;;;;;;14.88;9.30;;;19.30;44.30;;;;;;4832152;29;20214;-82
2022/03/16 12:36:28;;;;;;;16.10;9.50;;;19.40;44.10;;;;;;4832949;29;20213;-81
2022/03/16 12:39:00;;;;;;;12.27;8.82;;;19.40;44.20;;;;;;4827916;29;20158;-79
2022/03/16 12:44:07;;;;;;;13.02;8.93;;;19.40;44.40;;;;;;4819835;29;20166;-81
2022/03/16 12:46:56;;;;;;;13.15;9.20;;;19.40;44.40;;;;;;4830795;29;20180;-79
2022/03/16 12:49:23;;;;;;;16.23;9.05;;;19.40;44.40;;;;;;4856513;29;20196;-85
2022/03/16 12:52:08;;;;;;;16.15;9.68;;;19.40;44.20;;;;;;4847605;29;20288;-87
2022/03/16 12:54:34;;;;;;;15.80;9.70;;;19.40;44.30;;;;;;4816004;29;20297;-82
2022/03/16 12:57:06;;;;;;;17.13;9.23;;;19.30;44.40;;;;;;4833525;29;20250;-85
2022/03/16 12:59:48;;;;;;;27.58;9.77;;;19.40;43.50;;;;;;4812841;29;20234;-86
2022/03/16 13:02:24;;;;;;;19.17;9.15;;;19.50;42.60;;;;;;4810718;29;20186;-84
2022/03/16 13:04:56;;;;;;;38.42;9.95;;;19.50;43.20;;;;;;4826647;29;20219;-83